createdAt,value
2018-09-27T00:00:18.147Z,57.72
2018-09-27T00:01:18.338Z,57.24
2018-09-27T00:02:18.226Z,57.24
2018-09-27T00:03:18.264Z,56.29
2018-09-27T00:04:18.301Z,56.68
2018-09-27T00:05:18.342Z,57.43
2018-09-27T00:06:18.387Z,58.39
2018-09-27T00:07:18.418Z,58.86
2018-09-27T00:08:18.456Z,59.91
2018-09-27T00:09:18.498Z,60.19
2018-09-27T00:10:18.533Z,60.19
2018-09-27T00:11:18.571Z,60.10
2018-09-27T00:12:18.609Z,60.28
2018-09-27T00:13:18.646Z,59.52
2018-09-27T00:14:18.699Z,58.67
2018-09-27T00:15:18.723Z,58.48
2018-09-27T00:16:18.769Z,59.05
2018-09-27T00:17:18.800Z,58.86
2018-09-27T00:18:18.838Z,58.86
2018-09-27T00:19:18.884Z,58.48
2018-09-27T00:20:18.930Z,57.81
2018-09-27T00:21:18.953Z,57.06
2018-09-27T00:22:19.003Z,57.53
2018-09-27T00:23:19.031Z,56.87
2018-09-27T00:24:19.068Z,57.34
2018-09-27T00:25:19.105Z,56.96
2018-09-27T00:26:19.142Z,57.81
2018-09-27T00:27:19.189Z,57.72
2018-09-27T00:28:19.221Z,57.91
2018-09-27T00:29:19.257Z,57.72
2018-09-27T00:30:19.299Z,57.81
2018-09-27T00:31:19.337Z,57.53
2018-09-27T00:32:19.372Z,57.15
2018-09-27T00:33:19.413Z,57.43
2018-09-27T00:34:19.450Z,57.24
2018-09-27T00:35:19.487Z,56.96
2018-09-27T00:36:19.525Z,56.87
2018-09-27T00:37:19.564Z,57.15
2018-09-27T00:38:19.603Z,57.24
2018-09-27T00:39:19.644Z,57.72
2018-09-27T00:40:19.678Z,57.81
2018-09-27T00:41:19.715Z,57.72
2018-09-27T00:42:19.755Z,57.15
2018-09-27T00:43:19.790Z,57.81
2018-09-27T00:44:19.829Z,56.77
2018-09-27T00:45:19.866Z,57.15
2018-09-27T00:46:19.918Z,57.15
2018-09-27T00:47:19.951Z,57.06
2018-09-27T00:48:19.993Z,57.24
2018-09-27T00:49:20.021Z,56.89
2018-09-27T00:50:20.060Z,57.43
2018-09-27T00:51:20.097Z,57.06
2018-09-27T00:52:20.136Z,57.43
2018-09-27T00:53:20.175Z,57.91
2018-09-27T00:54:20.216Z,57.72
2018-09-27T00:55:20.247Z,57.81
2018-09-27T00:56:20.286Z,57.72
2018-09-27T00:57:20.326Z,56.39
2018-09-27T00:58:20.363Z,56.68
2018-09-27T00:59:20.401Z,55.16
2018-09-27T01:00:20.439Z,54.97
2018-09-27T01:01:20.481Z,56.13
2018-09-27T01:02:20.514Z,56.61
2018-09-27T01:03:20.552Z,57.09
2018-09-27T01:04:20.788Z,56.51
2018-09-27T01:05:20.628Z,56.51
2018-09-27T01:06:20.668Z,56.39
2018-09-27T01:07:20.707Z,56.20
2018-09-27T01:08:20.744Z,55.54
2018-09-27T01:09:20.783Z,55.91
2018-09-27T01:10:20.820Z,56.49
2018-09-27T01:11:20.857Z,56.68
2018-09-27T01:12:20.895Z,56.29
2018-09-27T01:13:20.935Z,55.06
2018-09-27T01:14:20.974Z,54.30
2018-09-27T01:15:21.010Z,54.02
2018-09-27T01:16:21.054Z,53.92
2018-09-27T01:17:21.088Z,54.11
2018-09-27T01:18:21.126Z,54.39
2018-09-27T01:19:21.170Z,54.21
2018-09-27T01:20:21.201Z,52.12
2018-09-27T01:21:21.239Z,51.45
2018-09-27T01:22:21.281Z,52.22
2018-09-27T01:23:21.315Z,52.40
2018-09-27T01:24:21.353Z,52.02
2018-09-27T01:25:21.395Z,52.02
2018-09-27T01:26:21.429Z,52.78
2018-09-27T01:27:21.465Z,52.59
2018-09-27T01:28:21.503Z,52.87
2018-09-27T01:29:21.542Z,52.02
2018-09-27T01:30:21.584Z,52.12
2018-09-27T01:31:21.618Z,51.36
2018-09-27T01:32:21.656Z,51.07
2018-09-27T01:33:21.698Z,50.51
2018-09-27T01:34:21.735Z,50.98
2018-09-27T01:35:21.770Z,50.41
2018-09-27T01:36:21.811Z,50.22
2018-09-27T01:37:21.847Z,50.89
2018-09-27T01:38:21.890Z,51.45
2018-09-27T01:39:21.923Z,51.83
2018-09-27T01:40:21.961Z,52.31
2018-09-27T01:41:22.000Z,52.31
2018-09-27T01:42:22.037Z,52.78
2018-09-27T01:43:22.076Z,52.50
2018-09-27T01:44:22.113Z,52.78
2018-09-27T01:45:22.202Z,52.12
2018-09-27T01:46:22.189Z,52.31
2018-09-27T01:47:22.228Z,52.22
2018-09-27T01:48:22.266Z,52.40
2018-09-27T01:49:22.305Z,52.31
2018-09-27T01:50:22.356Z,52.22
2018-09-27T01:51:22.381Z,51.74
2018-09-27T01:52:22.429Z,51.93
2018-09-27T01:53:22.456Z,51.55
2018-09-27T01:54:22.494Z,51.36
2018-09-27T01:55:22.536Z,50.89
2018-09-27T01:56:22.570Z,50.03
2018-09-27T01:57:22.607Z,50.12
2018-09-27T01:58:22.646Z,49.84
2018-09-27T01:59:22.685Z,50.22
2018-09-27T02:00:22.724Z,49.46
2018-09-27T02:01:22.761Z,49.55
2018-09-27T02:02:22.798Z,49.46
2018-09-27T02:03:22.836Z,50.03
2018-09-27T02:04:22.874Z,50.12
2018-09-27T02:05:22.911Z,50.12
2018-09-27T02:06:22.950Z,50.22
2018-09-27T02:07:22.992Z,48.70
2018-09-27T02:08:23.027Z,47.94
2018-09-27T02:09:23.063Z,47.18
2018-09-27T02:10:23.104Z,46.80
2018-09-27T02:11:23.139Z,47.18
2018-09-27T02:12:23.179Z,47.66
2018-09-27T02:13:23.216Z,46.90
2018-09-27T02:14:23.256Z,47.56
2018-09-27T02:15:23.292Z,47.75
2018-09-27T02:16:23.330Z,47.37
2018-09-27T02:17:23.369Z,47.56
2018-09-27T02:18:23.457Z,47.28
2018-09-27T02:19:23.444Z,46.99
2018-09-27T02:20:23.485Z,46.90
2018-09-27T02:21:23.522Z,46.61
2018-09-27T02:22:23.560Z,46.80
2018-09-27T02:23:23.603Z,47.47
2018-09-27T02:24:23.635Z,47.37
2018-09-27T02:25:23.672Z,47.37
2018-09-27T02:26:23.711Z,47.75
2018-09-27T02:27:23.749Z,47.18
2018-09-27T02:28:23.787Z,47.37
2018-09-27T02:29:23.824Z,47.18
2018-09-27T02:30:23.861Z,47.37
2018-09-27T02:31:23.901Z,47.47
2018-09-27T02:32:23.938Z,47.47
2018-09-27T02:33:23.977Z,47.18
2018-09-27T02:34:24.014Z,46.80
2018-09-27T02:35:24.056Z,46.42
2018-09-27T02:36:24.091Z,45.85
2018-09-27T02:37:24.127Z,45.47
2018-09-27T02:38:24.165Z,45.38
2018-09-27T02:39:24.203Z,44.14
2018-09-27T02:40:24.242Z,44.24
2018-09-27T02:41:24.283Z,44.21
2018-09-27T02:42:24.322Z,43.95
2018-09-27T02:43:24.355Z,44.24
2018-09-27T02:44:24.396Z,44.24
2018-09-27T02:45:24.431Z,44.62
2018-09-27T02:46:24.470Z,44.90
2018-09-27T02:47:24.508Z,45.38
2018-09-27T02:48:24.545Z,44.90
2018-09-27T02:49:24.583Z,44.34
2018-09-27T02:50:24.621Z,44.50
2018-09-27T02:51:24.660Z,44.71
2018-09-27T02:52:24.705Z,44.60
2018-09-27T02:53:24.739Z,44.69
2018-09-27T02:54:24.773Z,44.69
2018-09-27T02:55:24.808Z,44.69
2018-09-27T02:56:24.846Z,44.79
2018-09-27T02:57:24.884Z,45.45
2018-09-27T02:58:24.932Z,45.36
2018-09-27T02:59:24.964Z,45.26
2018-09-27T03:00:24.998Z,44.88
2018-09-27T03:01:25.045Z,45.54
2018-09-27T03:02:25.081Z,43.65
2018-09-27T03:03:25.116Z,43.65
2018-09-27T03:04:25.154Z,42.79
2018-09-27T03:05:25.197Z,42.22
2018-09-27T03:06:25.226Z,41.56
2018-09-27T03:07:25.263Z,41.56
2018-09-27T03:08:25.299Z,41.46
2018-09-27T03:09:25.340Z,40.80
2018-09-27T03:10:25.385Z,40.52
2018-09-27T03:11:25.413Z,40.23
2018-09-27T03:12:25.453Z,40.23
2018-09-27T03:13:25.493Z,40.23
2018-09-27T03:14:25.528Z,40.70
2018-09-27T03:15:25.589Z,40.70
2018-09-27T03:16:25.603Z,40.89
2018-09-27T03:17:25.641Z,40.33
2018-09-27T03:18:25.680Z,40.61
2018-09-27T03:19:25.720Z,40.14
2018-09-27T03:20:25.755Z,39.57
2018-09-27T03:21:25.806Z,38.81
2018-09-27T03:22:25.833Z,38.81
2018-09-27T03:23:25.867Z,38.71
2018-09-27T03:24:25.909Z,38.24
2018-09-27T03:25:25.945Z,37.86
2018-09-27T03:26:25.984Z,37.57
2018-09-27T03:27:26.029Z,37.95
2018-09-27T03:28:26.058Z,37.57
2018-09-27T03:29:26.095Z,37.67
2018-09-27T03:30:26.135Z,37.57
2018-09-27T03:31:26.178Z,37.67
2018-09-27T03:32:26.209Z,37.67
2018-09-27T03:33:26.246Z,37.57
2018-09-27T03:34:26.289Z,37.86
2018-09-27T03:35:26.322Z,37.67
2018-09-27T03:36:26.370Z,37.67
2018-09-27T03:37:26.397Z,37.76
2018-09-27T03:38:26.438Z,37.57
2018-09-27T03:39:26.473Z,37.95
2018-09-27T03:40:26.585Z,37.76
2018-09-27T03:41:26.563Z,37.76
2018-09-27T03:42:26.589Z,37.67
2018-09-27T03:43:26.626Z,37.38
2018-09-27T03:44:26.662Z,37.10
2018-09-27T03:45:26.701Z,37.10
2018-09-27T03:46:26.739Z,36.82
2018-09-27T03:47:26.776Z,37.48
2018-09-27T03:48:26.815Z,37.76
2018-09-27T03:49:26.852Z,37.67
2018-09-27T03:50:26.891Z,38.33
2018-09-27T03:51:26.937Z,38.24
2018-09-27T03:52:26.967Z,38.33
2018-09-27T03:53:27.003Z,37.95
2018-09-27T03:54:27.043Z,38.14
2018-09-27T03:55:27.078Z,37.86
2018-09-27T03:56:27.126Z,37.67
2018-09-27T03:57:27.158Z,37.48
2018-09-27T03:58:27.293Z,37.01
2018-09-27T03:59:27.232Z,37.01
2018-09-27T04:00:27.269Z,36.72
2018-09-27T04:01:27.305Z,37.19
2018-09-27T04:02:27.344Z,37.57
2018-09-27T04:03:27.463Z,38.05
2018-09-27T04:04:27.420Z,37.95
2018-09-27T04:05:27.456Z,37.38
2018-09-27T04:06:27.503Z,37.38
2018-09-27T04:07:27.536Z,37.10
2018-09-27T04:08:27.569Z,36.82
2018-09-27T04:09:27.608Z,37.10
2018-09-27T04:10:27.655Z,37.01
2018-09-27T04:11:27.682Z,36.63
2018-09-27T04:12:27.771Z,36.44
2018-09-27T04:13:27.757Z,36.15
2018-09-27T04:14:27.797Z,36.15
2018-09-27T04:15:27.833Z,35.86
2018-09-27T04:16:27.872Z,36.15
2018-09-27T04:17:27.910Z,36.05
2018-09-27T04:18:27.949Z,35.58
2018-09-27T04:19:27.984Z,35.77
2018-09-27T04:20:28.027Z,36.15
2018-09-27T04:21:28.060Z,36.15
2018-09-27T04:22:28.099Z,35.96
2018-09-27T04:23:28.135Z,35.68
2018-09-27T04:24:28.175Z,35.20
2018-09-27T04:25:28.216Z,35.68
2018-09-27T04:26:28.250Z,35.39
2018-09-27T04:27:28.288Z,35.49
2018-09-27T04:28:28.324Z,35.20
2018-09-27T04:29:28.364Z,35.30
2018-09-27T04:30:28.410Z,34.63
2018-09-27T04:31:28.448Z,34.73
2018-09-27T04:32:28.476Z,34.54
2018-09-27T04:33:28.514Z,34.34
2018-09-27T04:34:28.552Z,34.25
2018-09-27T04:35:28.591Z,34.44
2018-09-27T04:36:28.625Z,34.73
2018-09-27T04:37:28.668Z,34.73
2018-09-27T04:38:28.705Z,34.73
2018-09-27T04:39:28.739Z,34.54
2018-09-27T04:40:28.779Z,34.16
2018-09-27T04:41:28.816Z,34.44
2018-09-27T04:42:28.858Z,34.73
2018-09-27T04:43:28.890Z,34.63
2018-09-27T04:44:28.930Z,34.25
2018-09-27T04:45:28.965Z,34.16
2018-09-27T04:46:29.007Z,34.54
2018-09-27T04:47:29.041Z,34.73
2018-09-27T04:48:29.080Z,35.11
2018-09-27T04:49:29.128Z,35.11
2018-09-27T04:50:29.156Z,35.39
2018-09-27T04:51:29.195Z,35.68
2018-09-27T04:52:29.233Z,35.39
2018-09-27T04:53:29.268Z,35.77
2018-09-27T04:54:29.388Z,35.58
2018-09-27T04:55:29.342Z,35.77
2018-09-27T04:56:29.382Z,35.39
2018-09-27T04:57:29.419Z,34.73
2018-09-27T04:58:29.458Z,34.54
2018-09-27T04:59:29.496Z,35.11
2018-09-27T05:00:29.541Z,35.11
2018-09-27T05:01:29.569Z,34.16
2018-09-27T05:02:29.611Z,33.40
2018-09-27T05:03:29.653Z,33.40
2018-09-27T05:04:29.682Z,33.59
2018-09-27T05:05:29.723Z,33.97
2018-09-27T05:06:29.829Z,33.78
2018-09-27T05:07:29.799Z,33.87
2018-09-27T05:08:29.833Z,33.87
2018-09-27T05:09:29.874Z,33.78
2018-09-27T05:10:29.910Z,33.87
2018-09-27T05:11:29.960Z,33.21
2018-09-27T05:12:29.983Z,32.83
2018-09-27T05:13:30.022Z,32.73
2018-09-27T05:14:30.060Z,32.45
2018-09-27T05:15:30.117Z,32.35
2018-09-27T05:16:30.135Z,32.26
2018-09-27T05:17:30.173Z,32.54
2018-09-27T05:18:30.210Z,32.83
2018-09-27T05:19:30.248Z,33.02
2018-09-27T05:20:30.326Z,32.73
2018-09-27T05:21:30.408Z,32.64
2018-09-27T05:22:30.373Z,32.54
2018-09-27T05:23:30.398Z,32.45
2018-09-27T05:24:30.437Z,32.35
2018-09-27T05:25:30.474Z,32.17
2018-09-27T05:26:30.515Z,32.17
2018-09-27T05:27:30.558Z,32.07
2018-09-27T05:28:30.586Z,32.26
2018-09-27T05:29:30.626Z,32.26
2018-09-27T05:30:30.663Z,32.17
2018-09-27T05:31:30.709Z,32.26
2018-09-27T05:32:30.740Z,31.79
2018-09-27T05:33:30.790Z,31.88
2018-09-27T05:34:30.816Z,32.17
2018-09-27T05:35:30.854Z,31.98
2018-09-27T05:36:30.893Z,31.69
2018-09-27T05:37:30.931Z,31.60
2018-09-27T05:38:30.967Z,30.65
2018-09-27T05:39:31.033Z,30.83
2018-09-27T05:40:31.047Z,31.21
2018-09-27T05:41:31.077Z,31.60
2018-09-27T05:42:31.123Z,31.60
2018-09-27T05:43:31.153Z,31.88
2018-09-27T05:44:31.191Z,31.98
2018-09-27T05:45:31.288Z,32.35
2018-09-27T05:46:31.266Z,32.83
2018-09-27T05:47:31.305Z,32.92
2018-09-27T05:48:31.342Z,33.02
2018-09-27T05:49:31.378Z,33.11
2018-09-27T05:50:31.420Z,33.11
2018-09-27T05:51:31.477Z,33.50
2018-09-27T05:52:31.493Z,33.40
2018-09-27T05:53:31.532Z,33.97
2018-09-27T05:54:31.568Z,34.54
2018-09-27T05:55:31.606Z,35.11
2018-09-27T05:56:31.644Z,35.58
2018-09-27T05:57:31.707Z,35.77
2018-09-27T05:58:31.719Z,36.15
2018-09-27T05:59:31.757Z,36.83
2018-09-27T06:00:31.797Z,36.72
2018-09-27T06:01:31.834Z,37.59
2018-09-27T06:02:31.872Z,38.16
2018-09-27T06:03:31.915Z,38.26
2018-09-27T06:04:31.948Z,38.90
2018-09-27T06:05:31.985Z,39.59
2018-09-27T06:06:32.028Z,40.63
2018-09-27T06:07:32.059Z,41.01
2018-09-27T06:08:32.103Z,40.63
2018-09-27T06:09:32.156Z,41.20
2018-09-27T06:10:32.173Z,41.11
2018-09-27T06:11:32.232Z,40.92
2018-09-27T06:12:32.248Z,42.53
2018-09-27T06:13:32.288Z,42.43
2018-09-27T06:14:32.334Z,42.91
2018-09-27T06:15:32.381Z,43.76
2018-09-27T06:16:32.554Z,43.67
2018-09-27T06:17:32.447Z,44.81
2018-09-27T06:18:32.477Z,46.70
2018-09-27T06:19:32.590Z,47.28
2018-09-27T06:20:32.551Z,48.61
2018-09-27T06:21:32.661Z,48.41
2018-09-27T06:22:32.632Z,48.99
2018-09-27T06:23:32.664Z,49.27
2018-09-27T06:24:32.702Z,50.31
2018-09-27T06:25:32.741Z,48.89
2018-09-27T06:26:32.779Z,48.89
2018-09-27T06:27:32.837Z,48.41
2018-09-27T06:28:32.855Z,47.47
2018-09-27T06:29:32.892Z,47.47
2018-09-27T06:30:32.931Z,47.56
2018-09-27T06:31:32.967Z,47.47
2018-09-27T06:32:33.005Z,47.09
2018-09-27T06:33:33.175Z,47.18
2018-09-27T06:34:33.082Z,47.37
2018-09-27T06:35:33.122Z,46.90
2018-09-27T06:36:33.157Z,46.80
2018-09-27T06:37:33.196Z,47.49
2018-09-27T06:38:33.239Z,49.29
2018-09-27T06:39:33.273Z,50.62
2018-09-27T06:40:33.310Z,51.39
2018-09-27T06:41:33.393Z,52.91
2018-09-27T06:42:33.387Z,53.00
2018-09-27T06:43:33.423Z,53.57
2018-09-27T06:44:33.544Z,53.38
2018-09-27T06:45:33.501Z,53.19
2018-09-27T06:46:33.540Z,53.76
2018-09-27T06:47:33.575Z,54.99
2018-09-27T06:48:33.640Z,56.99
2018-09-27T06:49:33.656Z,57.37
2018-09-27T06:50:33.755Z,58.41
2018-09-27T06:51:33.749Z,59.36
2018-09-27T06:52:33.766Z,59.36
2018-09-27T06:53:33.807Z,59.65
2018-09-27T06:54:33.844Z,58.89
2018-09-27T06:55:33.959Z,58.80
2018-09-27T06:56:33.964Z,59.17
2018-09-27T06:57:33.958Z,59.68
2018-09-27T06:58:33.998Z,60.63
2018-09-27T06:59:34.037Z,60.91
2018-09-27T07:00:34.074Z,62.34
2018-09-27T07:01:34.112Z,62.24
2018-09-27T07:02:34.197Z,62.81
2018-09-27T07:03:34.190Z,64.14
2018-09-27T07:04:34.227Z,65.67
2018-09-27T07:05:34.269Z,65.47
2018-09-27T07:06:34.306Z,66.42
2018-09-27T07:07:34.342Z,65.76
2018-09-27T07:08:34.391Z,66.14
2018-09-27T07:09:34.419Z,66.05
2018-09-27T07:10:34.457Z,66.61
2018-09-27T07:11:34.496Z,66.33
2018-09-27T07:12:34.697Z,66.24
2018-09-27T07:13:34.573Z,66.42
2018-09-27T07:14:34.671Z,67.85
2018-09-27T07:15:34.665Z,69.37
2018-09-27T07:16:34.687Z,69.02
2018-09-27T07:17:34.726Z,69.85
2018-09-27T07:18:34.822Z,68.93
2018-09-27T07:19:34.802Z,68.23
2018-09-27T07:20:34.864Z,68.65
2018-09-27T07:21:34.880Z,69.41
2018-09-27T07:22:34.921Z,69.50
2018-09-27T07:23:34.957Z,70.54
2018-09-27T07:24:34.996Z,70.36
2018-09-27T07:25:35.035Z,70.45
2018-09-27T07:26:35.093Z,70.36
2018-09-27T07:27:35.112Z,69.88
2018-09-27T07:28:35.152Z,69.41
2018-09-27T07:29:35.191Z,70.36
2018-09-27T07:30:35.229Z,70.54
2018-09-27T07:31:35.266Z,70.83
2018-09-27T07:32:35.342Z,72.26
2018-09-27T07:33:35.346Z,72.74
2018-09-27T07:34:35.389Z,73.21
2018-09-27T07:35:35.425Z,72.92
2018-09-27T07:36:35.499Z,74.16
2018-09-27T07:37:35.502Z,74.92
2018-09-27T07:38:35.560Z,74.87
2018-09-27T07:39:35.578Z,74.77
2018-09-27T07:40:35.625Z,75.15
2018-09-27T07:41:35.657Z,76.29
2018-09-27T07:42:35.722Z,76.48
2018-09-27T07:43:35.733Z,77.05
2018-09-27T07:44:35.843Z,77.53
2018-09-27T07:45:35.814Z,77.81
2018-09-27T07:46:35.858Z,77.62
2018-09-27T07:47:35.896Z,78.48
2018-09-27T07:48:35.992Z,78.48
2018-09-27T07:49:35.968Z,78.10
2018-09-27T07:50:36.076Z,78.10
2018-09-27T07:51:36.045Z,78.77
2018-09-27T07:52:36.089Z,78.23
2018-09-27T07:53:36.123Z,77.76
2018-09-27T07:54:36.292Z,77.76
2018-09-27T07:55:36.202Z,77.66
2018-09-27T07:56:36.299Z,78.23
2018-09-27T07:57:36.283Z,78.14
2018-09-27T07:58:36.322Z,77.47
2018-09-27T07:59:36.358Z,78.04
2018-09-27T08:00:36.398Z,78.61
2018-09-27T08:01:36.440Z,79.28
2018-09-27T08:02:36.585Z,79.94
2018-09-27T08:03:36.515Z,80.71
2018-09-27T08:04:36.564Z,80.04
2018-09-27T08:05:36.594Z,80.23
2018-09-27T08:06:36.633Z,79.28
2018-09-27T08:07:36.675Z,79.66
2018-09-27T08:08:36.756Z,79.22
2018-09-27T08:09:36.758Z,80.18
2018-09-27T08:10:36.790Z,80.46
2018-09-27T08:11:36.866Z,81.03
2018-09-27T08:12:36.869Z,82.75
2018-09-27T08:13:36.907Z,83.61
2018-09-27T08:14:37.055Z,82.65
2018-09-27T08:15:36.985Z,82.93
2018-09-27T08:16:37.029Z,82.93
2018-09-27T08:17:37.063Z,83.70
2018-09-27T08:18:37.115Z,84.84
2018-09-27T08:19:37.143Z,84.69
2018-09-27T08:20:37.331Z,85.36
2018-09-27T08:21:37.226Z,85.74
2018-09-27T08:22:37.263Z,85.74
2018-09-27T08:23:37.301Z,86.98
2018-09-27T08:24:37.341Z,87.17
2018-09-27T08:25:37.379Z,86.79
2018-09-27T08:26:37.426Z,87.65
2018-09-27T08:27:37.459Z,89.55
2018-09-27T08:28:37.499Z,89.07
2018-09-27T08:29:37.547Z,89.69
2018-09-27T08:30:37.643Z,90.55
2018-09-27T08:31:37.617Z,90.45
2018-09-27T08:32:37.711Z,90.93
2018-09-27T08:33:37.699Z,90.84
2018-09-27T08:34:37.738Z,90.55
2018-09-27T08:35:37.787Z,90.64
2018-09-27T08:36:37.818Z,90.36
2018-09-27T08:37:37.860Z,90.84
2018-09-27T08:38:37.924Z,91.69
2018-09-27T08:39:37.941Z,91.41
2018-09-27T08:40:37.977Z,91.60
2018-09-27T08:41:38.020Z,92.32
2018-09-27T08:42:38.059Z,92.50
2018-09-27T08:43:38.099Z,92.41
2018-09-27T08:44:38.231Z,92.03
2018-09-27T08:45:38.273Z,92.03
2018-09-27T08:46:38.216Z,92.32
2018-09-27T08:47:38.266Z,92.22
2018-09-27T08:48:38.298Z,92.32
2018-09-27T08:49:38.347Z,92.22
2018-09-27T08:50:38.377Z,93.74
2018-09-27T08:51:38.452Z,92.60
2018-09-27T08:52:38.458Z,92.93
2018-09-27T08:53:38.498Z,92.74
2018-09-27T08:54:38.590Z,93.02
2018-09-27T08:55:38.719Z,93.79
2018-09-27T08:56:38.620Z,93.51
2018-09-27T08:57:38.668Z,93.51
2018-09-27T08:58:38.702Z,92.83
2018-09-27T08:59:38.740Z,93.02
2018-09-27T09:00:38.788Z,91.98
2018-09-27T09:01:38.926Z,93.98
2018-09-27T09:02:38.872Z,93.41
2018-09-27T09:03:39.007Z,93.74
2018-09-27T09:04:38.944Z,94.03
2018-09-27T09:05:38.983Z,93.93
2018-09-27T09:06:39.025Z,93.74
2018-09-27T09:07:39.107Z,93.93
2018-09-27T09:08:39.107Z,94.03
2018-09-27T09:09:39.218Z,94.03
2018-09-27T09:10:39.190Z,93.65
2018-09-27T09:11:39.230Z,93.74
2018-09-27T09:12:39.271Z,94.41
2018-09-27T09:13:39.321Z,94.41
2018-09-27T09:14:39.351Z,94.12
2018-09-27T09:15:39.414Z,93.98
2018-09-27T09:16:39.431Z,93.88
2018-09-27T09:17:39.471Z,94.17
2018-09-27T09:18:39.513Z,95.03
2018-09-27T09:19:39.612Z,94.55
2018-09-27T09:20:39.593Z,95.03
2018-09-27T09:21:39.736Z,94.22
2018-09-27T09:22:39.678Z,94.55
2018-09-27T09:23:39.718Z,94.41
2018-09-27T09:24:39.821Z,94.70
2018-09-27T09:25:39.865Z,94.79
2018-09-27T09:26:39.839Z,94.02
2018-09-27T09:27:39.923Z,93.84
2018-09-27T09:28:40.131Z,94.60
2018-09-27T09:29:40.064Z,94.22
2018-09-27T09:30:40.004Z,95.41
2018-09-27T09:31:40.053Z,94.46
2018-09-27T09:32:40.096Z,94.65
2018-09-27T09:33:40.238Z,94.46
2018-09-27T09:34:40.172Z,94.36
2018-09-27T09:35:40.276Z,94.46
2018-09-27T09:36:40.251Z,94.46
2018-09-27T09:37:40.292Z,95.07
2018-09-27T09:38:40.342Z,94.70
2018-09-27T09:39:40.374Z,94.70
2018-09-27T09:40:40.416Z,95.27
2018-09-27T09:41:40.458Z,95.27
2018-09-27T09:42:40.503Z,94.41
2018-09-27T09:43:40.540Z,95.07
2018-09-27T09:44:40.583Z,94.21
2018-09-27T09:45:40.630Z,94.60
2018-09-27T09:46:40.666Z,94.79
2018-09-27T09:47:40.706Z,94.21
2018-09-27T09:48:40.763Z,94.79
2018-09-27T09:49:40.790Z,95.36
2018-09-27T09:50:40.833Z,94.55
2018-09-27T09:51:40.877Z,94.93
2018-09-27T09:52:40.928Z,95.31
2018-09-27T09:53:40.957Z,94.65
2018-09-27T09:54:41.001Z,94.74
2018-09-27T09:55:41.040Z,95.31
2018-09-27T09:56:41.084Z,94.65
2018-09-27T09:57:41.123Z,94.26
2018-09-27T09:58:41.165Z,93.74
2018-09-27T09:59:41.208Z,93.83
2018-09-27T10:00:41.249Z,93.45
2018-09-27T10:01:41.299Z,93.26
2018-09-27T10:02:41.335Z,92.40
2018-09-27T10:03:41.376Z,92.97
2018-09-27T10:04:41.417Z,93.64
2018-09-27T10:05:41.464Z,92.01
2018-09-27T10:06:41.505Z,92.54
2018-09-27T10:07:41.545Z,92.92
2018-09-27T10:08:41.589Z,92.73
2018-09-27T10:09:41.634Z,92.73
2018-09-27T10:10:41.670Z,92.63
2018-09-27T10:11:41.714Z,92.73
2018-09-27T10:12:41.760Z,92.25
2018-09-27T10:13:41.798Z,91.72
2018-09-27T10:14:41.841Z,91.29
2018-09-27T10:15:41.890Z,91.67
2018-09-27T10:16:41.921Z,90.00
2018-09-27T10:17:41.973Z,90.67
2018-09-27T10:18:42.008Z,90.86
2018-09-27T10:19:42.050Z,90.57
2018-09-27T10:20:42.092Z,90.19
2018-09-27T10:21:42.208Z,90.00
2018-09-27T10:22:42.176Z,89.80
2018-09-27T10:23:42.220Z,87.79
2018-09-27T10:24:42.262Z,85.30
2018-09-27T10:25:42.303Z,81.46
2018-09-27T10:26:42.347Z,80.16
2018-09-27T10:27:42.396Z,80.64
2018-09-27T10:28:42.430Z,78.72
2018-09-27T10:29:42.481Z,79.11
2018-09-27T10:30:42.518Z,79.68
2018-09-27T10:31:42.558Z,81.79
2018-09-27T10:32:42.611Z,83.42
2018-09-27T10:33:42.643Z,84.67
2018-09-27T10:34:42.763Z,85.63
2018-09-27T10:35:42.730Z,86.40
2018-09-27T10:36:42.772Z,85.53
2018-09-27T10:37:42.814Z,85.19
2018-09-27T10:38:42.859Z,85.25
2018-09-27T10:39:42.901Z,83.94
2018-09-27T10:40:42.944Z,82.60
2018-09-27T10:41:42.984Z,81.16
2018-09-27T10:42:43.029Z,80.78
2018-09-27T10:43:43.069Z,79.63
2018-09-27T10:44:43.113Z,81.45
2018-09-27T10:45:43.154Z,82.12
2018-09-27T10:46:43.200Z,82.51
2018-09-27T10:47:43.242Z,79.05
2018-09-27T10:48:43.289Z,75.60
2018-09-27T10:49:43.326Z,75.06
2018-09-27T10:50:43.420Z,74.26
2018-09-27T10:51:43.413Z,74.48
2018-09-27T10:52:43.456Z,74.68
2018-09-27T10:53:43.499Z,72.56
2018-09-27T10:54:43.543Z,70.17
2018-09-27T10:55:43.583Z,69.01
2018-09-27T10:56:43.625Z,68.63
2018-09-27T10:57:43.679Z,68.63
2018-09-27T10:58:43.715Z,66.90
2018-09-27T10:59:43.803Z,67.00
2018-09-27T11:00:43.807Z,68.05
2018-09-27T11:01:43.842Z,67.86
2018-09-27T11:02:43.888Z,65.27
2018-09-27T11:03:43.932Z,63.57
2018-09-27T11:04:43.974Z,60.11
2018-09-27T11:05:44.063Z,57.90
2018-09-27T11:06:44.062Z,59.64
2018-09-27T11:07:44.105Z,58.48
2018-09-27T11:08:44.144Z,61.08
2018-09-27T11:09:44.189Z,59.44
2018-09-27T11:10:44.230Z,58.48
2018-09-27T11:11:44.275Z,58.10
2018-09-27T11:12:44.315Z,55.32
2018-09-27T11:13:44.366Z,54.38
2018-09-27T11:14:44.402Z,52.75
2018-09-27T11:15:44.444Z,52.36
2018-09-27T11:16:44.596Z,53.80
2018-09-27T11:17:44.532Z,54.57
2018-09-27T11:18:44.578Z,53.42
2018-09-27T11:19:44.621Z,52.75
2018-09-27T11:20:44.663Z,52.84
2018-09-27T11:21:44.705Z,55.34
2018-09-27T11:22:44.751Z,55.73
2018-09-27T11:23:44.806Z,55.44
2018-09-27T11:24:44.835Z,53.61
2018-09-27T11:25:44.880Z,51.98
2018-09-27T11:26:44.926Z,51.50
2018-09-27T11:27:45.007Z,54.09
2018-09-27T11:28:45.009Z,53.80
2018-09-27T11:29:45.061Z,49.96
2018-09-27T11:30:45.097Z,49.10
2018-09-27T11:31:45.148Z,49.12
2018-09-27T11:32:45.185Z,51.62
2018-09-27T11:33:45.228Z,53.45
2018-09-27T11:34:45.273Z,51.62
2018-09-27T11:35:45.318Z,51.14
2018-09-27T11:36:45.357Z,50.85
2018-09-27T11:37:45.403Z,51.62
2018-09-27T11:38:45.445Z,53.64
2018-09-27T11:39:45.486Z,53.35
2018-09-27T11:40:45.531Z,52.48
2018-09-27T11:41:45.741Z,52.39
2018-09-27T11:42:45.680Z,52.00
2018-09-27T11:43:45.661Z,52.77
2018-09-27T11:44:45.706Z,51.23
2018-09-27T11:45:45.762Z,52.32
2018-09-27T11:46:45.793Z,51.93
2018-09-27T11:47:45.837Z,52.99
2018-09-27T11:48:45.886Z,54.34
2018-09-27T11:49:46.086Z,55.30
2018-09-27T11:50:45.975Z,55.20
2018-09-27T11:51:46.010Z,54.63
2018-09-27T11:52:46.058Z,53.66
2018-09-27T11:53:46.110Z,53.86
2018-09-27T11:54:46.145Z,54.24
2018-09-27T11:55:46.188Z,54.24
2018-09-27T11:56:46.229Z,55.30
2018-09-27T11:57:46.277Z,54.72
2018-09-27T11:58:46.326Z,54.91
2018-09-27T11:59:46.361Z,55.59
2018-09-27T12:00:46.408Z,53.88
2018-09-27T12:01:46.455Z,53.31
2018-09-27T12:02:46.491Z,52.54
2018-09-27T12:03:46.543Z,52.15
2018-09-27T12:04:46.589Z,52.83
2018-09-27T12:05:46.624Z,52.83
2018-09-27T12:06:46.757Z,52.06
2018-09-27T12:07:46.710Z,51.76
2018-09-27T12:08:46.761Z,52.44
2018-09-27T12:09:46.796Z,52.06
2018-09-27T12:10:46.848Z,50.71
2018-09-27T12:11:46.883Z,49.46
2018-09-27T12:12:46.928Z,48.11
2018-09-27T12:13:46.971Z,47.15
2018-09-27T12:14:47.017Z,48.30
2018-09-27T12:15:47.060Z,49.36
2018-09-27T12:16:47.166Z,48.40
2018-09-27T12:17:47.150Z,48.02
2018-09-27T12:18:47.203Z,45.99
2018-09-27T12:19:47.286Z,46.38
2018-09-27T12:20:47.279Z,46.47
2018-09-27T12:21:47.321Z,46.19
2018-09-27T12:22:47.367Z,46.38
2018-09-27T12:23:47.410Z,47.85
2018-09-27T12:24:47.453Z,48.30
2018-09-27T12:25:47.507Z,47.85
2018-09-27T12:26:47.542Z,47.46
2018-09-27T12:27:47.587Z,46.11
2018-09-27T12:28:47.633Z,45.34
2018-09-27T12:29:47.683Z,45.34
2018-09-27T12:30:47.718Z,45.05
2018-09-27T12:31:47.761Z,45.44
2018-09-27T12:32:47.806Z,46.31
2018-09-27T12:33:47.852Z,44.76
2018-09-27T12:34:47.899Z,43.80
2018-09-27T12:35:47.939Z,43.71
2018-09-27T12:36:47.984Z,43.61
2018-09-27T12:37:48.025Z,43.41
2018-09-27T12:38:48.098Z,43.63
2018-09-27T12:39:48.114Z,44.98
2018-09-27T12:40:48.158Z,44.89
2018-09-27T12:41:48.352Z,44.98
2018-09-27T12:42:48.247Z,44.11
2018-09-27T12:43:48.290Z,44.31
2018-09-27T12:44:48.333Z,45.56
2018-09-27T12:45:48.396Z,46.33
2018-09-27T12:46:48.543Z,45.27
2018-09-27T12:47:48.468Z,45.56
2018-09-27T12:48:48.645Z,44.89
2018-09-27T12:49:48.554Z,44.31
2018-09-27T12:50:48.658Z,44.40
2018-09-27T12:51:48.769Z,44.98
2018-09-27T12:52:48.785Z,43.63